createdAt,value
2023-02-03T00:02:16.394Z,4.40
2023-02-03T00:04:44.873Z,4.40
2023-02-03T00:07:13.561Z,4.40
2023-02-03T00:09:41.807Z,4.40
2023-02-03T00:12:09.718Z,4.40
2023-02-03T00:14:38.220Z,4.40
2023-02-03T00:17:06.274Z,4.40
2023-02-03T00:19:33.740Z,4.40
2023-02-03T00:22:01.515Z,4.40
2023-02-03T00:24:29.082Z,4.40
2023-02-03T00:26:56.910Z,4.40
2023-02-03T00:29:26.171Z,4.40
2023-02-03T00:31:54.493Z,4.40
2023-02-03T00:34:23.058Z,4.40
2023-02-03T00:36:50.984Z,4.40
2023-02-03T00:39:19.559Z,4.40
2023-02-03T00:41:48.598Z,4.40
2023-02-03T00:44:16.883Z,4.30
2023-02-03T00:46:44.499Z,4.30
2023-02-03T00:49:12.047Z,4.40
2023-02-03T00:51:39.674Z,4.40
2023-02-03T00:54:08.956Z,4.30
2023-02-03T00:56:37.003Z,4.30
2023-02-03T00:59:06.918Z,4.30
2023-02-03T01:01:35.186Z,4.30
2023-02-03T01:04:05.136Z,4.30
2023-02-03T01:06:32.686Z,4.30
2023-02-03T01:09:03.468Z,4.30
2023-02-03T01:11:32.648Z,4.30
2023-02-03T01:14:01.827Z,4.40
2023-02-03T01:16:31.419Z,4.30
2023-02-03T01:18:59.158Z,4.40
2023-02-03T01:21:27.912Z,4.40
2023-02-03T01:23:55.947Z,4.40
2023-02-03T01:26:24.303Z,4.40
2023-02-03T01:28:57.653Z,4.40
2023-02-03T01:31:39.533Z,4.40
2023-02-03T01:34:11.168Z,4.40
2023-02-03T01:36:40.062Z,4.40
2023-02-03T01:39:08.099Z,4.40
2023-02-03T01:41:38.745Z,4.40
2023-02-03T01:44:36.427Z,4.40
2023-02-03T01:47:06.834Z,4.40
2023-02-03T01:49:37.016Z,4.40
2023-02-03T01:52:06.011Z,4.30
2023-02-03T01:54:41.538Z,4.40
2023-02-03T01:57:29.875Z,4.40
2023-02-03T01:59:59.811Z,4.40
2023-02-03T02:02:27.840Z,4.40
2023-02-03T02:05:05.542Z,4.40
2023-02-03T02:07:35.805Z,4.30
2023-02-03T02:10:04.794Z,4.40
2023-02-03T02:12:33.151Z,4.40
2023-02-03T02:15:01.029Z,4.40
2023-02-03T02:17:57.664Z,4.40
2023-02-03T02:21:11.970Z,4.40
2023-02-03T02:23:55.538Z,4.40
2023-02-03T02:26:44.282Z,4.30
2023-02-03T02:29:43.349Z,4.30
2023-02-03T02:32:28.687Z,4.30
2023-02-03T02:35:17.909Z,4.30
2023-02-03T02:37:54.345Z,4.40
2023-02-03T02:40:44.291Z,4.30
2023-02-03T02:43:20.697Z,4.30
2023-02-03T02:45:53.344Z,4.40
2023-02-03T02:48:35.876Z,4.40
2023-02-03T02:51:07.815Z,4.40
2023-02-03T02:53:41.819Z,4.40
2023-02-03T02:56:11.789Z,4.40
2023-02-03T02:58:42.102Z,4.40
2023-02-03T03:01:10.156Z,4.40
2023-02-03T03:03:40.776Z,4.40
2023-02-03T03:06:19.728Z,4.40
2023-02-03T03:08:57.020Z,4.40
2023-02-03T03:11:27.768Z,4.40
2023-02-03T03:13:56.927Z,4.40
2023-02-03T03:16:29.622Z,4.40
2023-02-03T03:19:02.646Z,4.40
2023-02-03T03:21:36.315Z,4.40
2023-02-03T03:24:12.486Z,4.40
2023-02-03T03:27:10.508Z,4.40
2023-02-03T03:29:57.480Z,4.40
2023-02-03T03:32:30.722Z,4.40
2023-02-03T03:35:03.320Z,4.40
2023-02-03T03:37:38.357Z,4.40
2023-02-03T03:40:12.224Z,4.40
2023-02-03T03:42:51.226Z,4.40
2023-02-03T03:45:31.814Z,4.40
2023-02-03T03:48:05.215Z,4.40
2023-02-03T03:50:45.112Z,4.40
2023-02-03T03:53:18.842Z,4.50
2023-02-03T03:55:53.925Z,4.40
2023-02-03T03:58:29.843Z,4.40
2023-02-03T04:01:02.084Z,4.40
2023-02-03T04:03:35.325Z,4.40
2023-02-03T04:06:04.391Z,4.40
2023-02-03T04:08:32.533Z,4.40
2023-02-03T04:11:01.572Z,4.40
2023-02-03T04:13:30.226Z,4.40
2023-02-03T04:15:58.457Z,4.40
2023-02-03T04:18:25.778Z,4.30
2023-02-03T04:20:53.487Z,4.40
2023-02-03T04:23:21.093Z,4.40
2023-02-03T04:25:49.958Z,4.40
2023-02-03T04:28:17.605Z,4.40
2023-02-03T04:30:45.583Z,4.40
2023-02-03T04:33:13.035Z,4.40
2023-02-03T04:35:40.732Z,4.40
2023-02-03T04:38:08.534Z,4.40
2023-02-03T04:40:36.086Z,4.40
2023-02-03T04:43:07.795Z,4.50
2023-02-03T04:45:35.448Z,4.40
2023-02-03T04:48:04.617Z,4.50
2023-02-03T04:50:32.932Z,4.40
2023-02-03T04:53:01.153Z,4.50
2023-02-03T04:55:29.046Z,4.50
2023-02-03T04:57:58.088Z,4.50
2023-02-03T05:00:27.188Z,4.50
2023-02-03T05:02:55.742Z,4.50
2023-02-03T05:05:24.635Z,4.50
2023-02-03T05:07:52.199Z,4.50
2023-02-03T05:10:22.057Z,4.50
2023-02-03T05:12:49.917Z,4.50
2023-02-03T05:15:17.796Z,4.50
2023-02-03T05:17:45.701Z,4.50
2023-02-03T05:20:13.276Z,4.60
2023-02-03T05:22:40.759Z,4.50
2023-02-03T05:25:08.838Z,4.50
2023-02-03T05:27:38.263Z,4.50
2023-02-03T05:30:07.364Z,4.60
2023-02-03T05:32:35.003Z,4.50
2023-02-03T05:35:02.511Z,4.50
2023-02-03T05:37:31.150Z,4.50
2023-02-03T05:40:18.881Z,4.50
2023-02-03T05:42:49.861Z,4.50
2023-02-03T05:45:17.683Z,4.60
2023-02-03T05:47:45.445Z,4.60
2023-02-03T05:50:13.612Z,4.60
2023-02-03T05:52:42.779Z,4.50
2023-02-03T05:55:10.473Z,4.60
2023-02-03T05:57:38.055Z,4.50
2023-02-03T06:00:07.333Z,4.60
2023-02-03T06:02:35.088Z,4.60
2023-02-03T06:05:02.664Z,4.50
2023-02-03T06:07:33.909Z,4.60
2023-02-03T06:10:03.631Z,4.50
2023-02-03T06:12:32.479Z,4.50
2023-02-03T06:15:00.449Z,4.50
2023-02-03T06:17:28.843Z,4.60
2023-02-03T06:19:56.974Z,4.60
2023-02-03T06:22:25.786Z,4.60
2023-02-03T06:24:53.337Z,4.60
2023-02-03T06:27:20.961Z,4.60
2023-02-03T06:29:48.828Z,4.60
2023-02-03T06:32:17.796Z,4.50
2023-02-03T06:34:46.319Z,4.60
2023-02-03T06:37:15.734Z,4.50
2023-02-03T06:39:44.082Z,4.60
2023-02-03T06:42:11.793Z,4.50
2023-02-03T06:44:39.293Z,4.50
2023-02-03T06:47:07.148Z,4.50
2023-02-03T06:49:38.242Z,4.50
2023-02-03T06:52:07.886Z,4.50
2023-02-03T06:54:39.434Z,4.50
2023-02-03T06:57:08.177Z,4.50
2023-02-03T06:59:37.769Z,4.50
2023-02-03T07:02:05.523Z,4.50
2023-02-03T07:04:34.220Z,4.50
2023-02-03T07:07:02.468Z,4.60
2023-02-03T07:09:30.163Z,4.60
2023-02-03T07:11:57.657Z,4.60
2023-02-03T07:14:27.567Z,4.60
2023-02-03T07:16:55.208Z,4.60
2023-02-03T07:19:22.976Z,4.70
2023-02-03T07:21:50.760Z,4.70
2023-02-03T07:24:18.671Z,4.70
2023-02-03T07:26:47.683Z,4.70
2023-02-03T07:29:15.316Z,4.80
2023-02-03T07:31:45.586Z,4.80
2023-02-03T07:34:15.180Z,4.80
2023-02-03T07:36:44.263Z,4.90
2023-02-03T07:39:11.844Z,4.90
2023-02-03T07:41:40.324Z,4.90
2023-02-03T07:44:09.573Z,5.00
2023-02-03T07:46:42.116Z,5.10
2023-02-03T07:49:10.223Z,5.20
2023-02-03T07:51:38.353Z,5.20
2023-02-03T07:54:06.583Z,5.30
2023-02-03T07:56:35.132Z,5.30
2023-02-03T07:59:03.314Z,5.30
2023-02-03T08:01:31.630Z,5.30
2023-02-03T08:04:02.074Z,5.40
2023-02-03T08:06:30.575Z,5.40
2023-02-03T08:08:58.916Z,5.50
2023-02-03T08:11:26.714Z,5.50
2023-02-03T08:13:56.462Z,5.60
2023-02-03T08:16:24.562Z,5.60
2023-02-03T08:18:53.357Z,5.70
2023-02-03T08:21:20.995Z,5.70
2023-02-03T08:23:48.522Z,5.80
2023-02-03T08:26:16.151Z,5.80
2023-02-03T08:28:50.406Z,5.80
2023-02-03T08:31:18.095Z,5.80
2023-02-03T08:33:46.637Z,5.80
2023-02-03T08:36:14.272Z,5.80
2023-02-03T08:38:42.310Z,5.80
2023-02-03T08:41:15.051Z,5.80
2023-02-03T08:43:42.548Z,5.80
2023-02-03T08:46:11.111Z,5.90
2023-02-03T08:48:39.923Z,5.90
2023-02-03T08:51:16.829Z,6.00
2023-02-03T08:53:45.515Z,6.00
2023-02-03T08:56:13.456Z,6.10
2023-02-03T08:58:41.184Z,6.10
2023-02-03T09:01:14.516Z,6.10
2023-02-03T09:03:43.136Z,6.10
2023-02-03T09:06:15.771Z,6.10
2023-02-03T09:08:49.100Z,6.20
2023-02-03T09:11:18.985Z,6.20
2023-02-03T09:13:49.260Z,6.30
2023-02-03T09:16:21.652Z,6.30
2023-02-03T09:18:50.066Z,6.40
2023-02-03T09:21:31.744Z,6.40
2023-02-03T09:24:04.203Z,6.40
2023-02-03T09:26:31.772Z,6.50
2023-02-03T09:28:59.648Z,6.60
2023-02-03T09:31:27.585Z,6.60
2023-02-03T09:33:55.381Z,6.70
2023-02-03T09:36:23.113Z,6.60
2023-02-03T09:38:51.186Z,6.70
2023-02-03T09:41:50.632Z,6.70
2023-02-03T09:44:44.131Z,6.70
2023-02-03T09:47:17.014Z,6.80
2023-02-03T09:49:50.657Z,6.80
2023-02-03T09:52:22.635Z,6.80
2023-02-03T09:54:54.448Z,6.80
2023-02-03T09:57:27.868Z,6.90
2023-02-03T10:00:02.398Z,6.90
2023-02-03T10:02:59.596Z,6.90
2023-02-03T10:05:44.035Z,7.00
2023-02-03T10:08:43.478Z,7.00
2023-02-03T10:11:30.069Z,7.00
2023-02-03T10:14:12.770Z,7.00
2023-02-03T10:17:00.047Z,7.00
2023-02-03T10:19:36.955Z,7.00
2023-02-03T10:22:06.574Z,7.10
2023-02-03T10:24:47.267Z,7.10
2023-02-03T10:27:23.091Z,7.10
2023-02-03T10:30:21.952Z,7.10
2023-02-03T10:32:55.780Z,7.10
2023-02-03T10:35:38.605Z,7.20
2023-02-03T10:38:13.446Z,7.20
2023-02-03T10:40:41.327Z,7.20
2023-02-03T10:43:29.726Z,7.20
2023-02-03T10:45:58.904Z,7.20
2023-02-03T10:48:27.704Z,7.20
2023-02-03T10:50:57.900Z,7.30
2023-02-03T10:53:34.910Z,7.30
2023-02-03T10:56:13.213Z,7.30
2023-02-03T10:58:51.259Z,7.40
2023-02-03T11:01:23.503Z,7.40
2023-02-03T11:04:04.352Z,7.40
2023-02-03T11:06:33.756Z,7.40
2023-02-03T11:09:01.554Z,7.40
2023-02-03T11:11:34.285Z,7.40
2023-02-03T11:14:08.412Z,7.50
2023-02-03T11:16:39.250Z,7.40
2023-02-03T11:19:16.966Z,7.40
2023-02-03T11:21:48.876Z,7.40
2023-02-03T11:24:32.712Z,7.40
2023-02-03T11:27:18.172Z,7.50
2023-02-03T11:29:49.393Z,7.60
2023-02-03T11:32:24.635Z,7.60
2023-02-03T11:35:01.207Z,7.70
2023-02-03T11:37:40.115Z,7.80
2023-02-03T11:40:07.460Z,7.90
2023-02-03T11:42:36.758Z,8.00
2023-02-03T11:45:32.566Z,8.00
2023-02-03T11:48:10.610Z,8.00
2023-02-03T11:50:50.933Z,8.00
2023-02-03T11:53:55.124Z,8.00
2023-02-03T11:56:52.811Z,8.00
2023-02-03T11:59:50.627Z,7.90
2023-02-03T12:02:48.321Z,7.90
2023-02-03T12:05:44.572Z,7.90
2023-02-03T12:08:27.913Z,7.90
2023-02-03T12:11:29.935Z,7.80
2023-02-03T12:14:24.386Z,7.80
2023-02-03T12:17:10.659Z,7.80
2023-02-03T12:20:09.473Z,7.80
2023-02-03T12:22:50.975Z,7.80
2023-02-03T12:25:47.347Z,7.80
2023-02-03T12:28:40.749Z,7.80
2023-02-03T12:31:23.570Z,7.70
2023-02-03T12:34:14.726Z,7.80
2023-02-03T12:36:55.988Z,7.80
2023-02-03T12:39:52.799Z,7.90
2023-02-03T12:42:41.638Z,8.00
2023-02-03T12:45:10.725Z,8.00
2023-02-03T12:47:44.731Z,8.00
2023-02-03T12:50:21.844Z,8.00
2023-02-03T12:53:07.747Z,8.10
2023-02-03T12:55:37.659Z,8.10
2023-02-03T12:58:10.774Z,8.20
2023-02-03T13:00:51.385Z,8.20
2023-02-03T13:03:39.029Z,8.30
2023-02-03T13:06:11.423Z,8.30
2023-02-03T13:09:08.346Z,8.30
2023-02-03T13:12:18.591Z,8.30
2023-02-03T13:15:10.071Z,8.30
2023-02-03T13:17:49.354Z,8.30
2023-02-03T13:20:24.755Z,8.20
2023-02-03T13:22:53.314Z,8.20
2023-02-03T13:25:42.613Z,8.10
2023-02-03T13:28:31.707Z,8.00
2023-02-03T13:31:20.331Z,7.90
2023-02-03T13:34:14.328Z,7.90
2023-02-03T13:36:53.908Z,7.80
2023-02-03T13:39:34.141Z,7.80
2023-02-03T13:42:16.368Z,7.70
2023-02-03T13:44:51.817Z,7.70
2023-02-03T13:47:23.916Z,7.70
2023-02-03T13:50:25.554Z,7.60
2023-02-03T13:53:03.135Z,7.70
2023-02-03T13:55:42.071Z,7.70
2023-02-03T13:58:32.673Z,7.70
2023-02-03T14:01:04.740Z,7.70
2023-02-03T14:03:32.544Z,7.70
2023-02-03T14:06:01.837Z,7.70
2023-02-03T14:08:29.351Z,7.60
2023-02-03T14:11:15.875Z,7.60
2023-02-03T14:13:43.861Z,7.60
2023-02-03T14:16:24.256Z,7.60
2023-02-03T14:18:54.320Z,7.60
2023-02-03T14:21:24.976Z,7.50
2023-02-03T14:23:59.507Z,7.50
2023-02-03T14:26:38.713Z,7.40
2023-02-03T14:29:07.548Z,7.40
2023-02-03T14:31:56.450Z,7.40
2023-02-03T14:34:47.953Z,7.40
2023-02-03T14:37:23.432Z,7.30
2023-02-03T14:40:21.842Z,7.40
2023-02-03T14:43:08.617Z,7.30
2023-02-03T14:46:17.975Z,7.30
2023-02-03T14:49:27.981Z,7.30
2023-02-03T14:52:27.456Z,7.30
2023-02-03T14:55:20.559Z,7.30
2023-02-03T14:57:57.029Z,7.30
2023-02-03T15:00:27.769Z,7.30
2023-02-03T15:03:10.249Z,7.30
2023-02-03T15:05:43.459Z,7.30
2023-02-03T15:08:37.115Z,7.20
2023-02-03T15:11:24.063Z,7.20
2023-02-03T15:13:52.210Z,7.10
2023-02-03T15:16:23.965Z,7.10
2023-02-03T15:19:00.795Z,7.10
2023-02-03T15:21:29.121Z,7.10
2023-02-03T15:23:56.734Z,7.00
2023-02-03T15:26:26.790Z,7.00
2023-02-03T15:29:02.667Z,7.00
2023-02-03T15:31:34.270Z,7.00
2023-02-03T15:34:18.256Z,6.90
2023-02-03T15:36:54.139Z,6.90
2023-02-03T15:39:31.879Z,6.90
2023-02-03T15:42:00.601Z,6.90
2023-02-03T15:44:40.139Z,6.80
2023-02-03T15:47:40.594Z,6.80
2023-02-03T15:50:24.672Z,6.80
2023-02-03T15:52:55.844Z,6.80
2023-02-03T15:55:36.145Z,6.80
2023-02-03T15:58:05.491Z,6.80
2023-02-03T16:00:42.092Z,6.80
2023-02-03T16:03:19.809Z,6.80
2023-02-03T16:05:49.647Z,6.80
2023-02-03T16:08:43.278Z,6.80
2023-02-03T16:11:34.747Z,6.80
2023-02-03T16:14:27.549Z,6.70
2023-02-03T16:17:05.090Z,6.80
2023-02-03T16:19:40.799Z,6.80
2023-02-03T16:22:31.837Z,6.70
2023-02-03T16:25:19.348Z,6.70
2023-02-03T16:28:16.095Z,6.70
2023-02-03T16:31:29.557Z,6.70
2023-02-03T16:34:16.249Z,6.70
2023-02-03T16:37:03.117Z,6.70
2023-02-03T16:39:49.511Z,6.70
2023-02-03T16:42:40.246Z,6.60
2023-02-03T16:45:36.361Z,6.60
2023-02-03T16:48:23.414Z,6.60
2023-02-03T16:50:59.489Z,6.60
2023-02-03T16:53:30.282Z,6.60
2023-02-03T16:56:04.601Z,6.50
2023-02-03T16:58:32.726Z,6.50
2023-02-03T17:01:03.378Z,6.50
2023-02-03T17:03:33.184Z,6.50
2023-02-03T17:06:07.726Z,6.40
2023-02-03T17:08:37.068Z,6.40
2023-02-03T17:11:16.462Z,6.40
2023-02-03T17:13:44.922Z,6.30
2023-02-03T17:16:16.600Z,6.30
2023-02-03T17:18:45.702Z,6.30
2023-02-03T17:21:21.295Z,6.30
2023-02-03T17:23:49.306Z,6.30
2023-02-03T17:26:17.578Z,6.30
2023-02-03T17:28:45.742Z,6.30
2023-02-03T17:31:20.280Z,6.20
2023-02-03T17:33:52.347Z,6.20
2023-02-03T17:36:21.953Z,6.20
2023-02-03T17:55:33.349Z,5.90
2023-02-03T17:58:01.289Z,5.90
2023-02-03T18:00:29.687Z,5.90
2023-02-03T18:02:58.055Z,5.80
2023-02-03T18:05:25.662Z,5.80
2023-02-03T18:07:53.404Z,5.80
2023-02-03T18:10:21.034Z,5.70
2023-02-03T18:12:49.127Z,5.70
2023-02-03T18:15:16.745Z,5.70
2023-02-03T18:17:45.908Z,5.60
2023-02-03T18:20:13.691Z,5.70
2023-02-03T18:22:41.575Z,5.70
2023-02-03T18:25:10.155Z,5.70
2023-02-03T18:27:37.745Z,5.70
2023-02-03T18:30:06.784Z,5.80
2023-02-03T18:32:34.895Z,5.80
2023-02-03T18:35:04.908Z,5.80
2023-02-03T18:37:33.387Z,5.80
2023-02-03T18:40:00.942Z,5.90
2023-02-03T18:42:29.593Z,5.90
2023-02-03T18:44:57.425Z,5.90
2023-02-03T18:47:25.018Z,5.90
2023-02-03T18:49:53.046Z,5.90
2023-02-03T18:52:20.718Z,6.00
2023-02-03T18:54:48.300Z,5.90
2023-02-03T18:57:16.836Z,6.00
2023-02-03T18:59:44.814Z,6.00
2023-02-03T19:02:12.466Z,6.00
2023-02-03T19:04:40.322Z,6.00
2023-02-03T19:07:07.834Z,6.00
2023-02-03T19:09:35.565Z,6.00
2023-02-03T19:12:04.186Z,6.00
2023-02-03T19:14:32.879Z,6.00
2023-02-03T19:17:00.684Z,6.00
2023-02-03T19:19:29.762Z,6.10
2023-02-03T19:21:58.662Z,6.10
2023-02-03T19:24:27.073Z,6.10
2023-02-03T19:26:54.541Z,6.10
2023-02-03T19:29:21.921Z,6.10
2023-02-03T19:31:49.595Z,6.20
2023-02-03T19:34:17.804Z,6.20
2023-02-03T19:36:47.053Z,6.20
2023-02-03T19:39:15.657Z,6.20
2023-02-03T19:41:43.479Z,6.20
2023-02-03T19:44:11.068Z,6.20
2023-02-03T19:46:38.700Z,6.20
2023-02-03T19:49:10.818Z,6.20
2023-02-03T19:51:39.735Z,6.20
2023-02-03T19:54:07.992Z,6.20
2023-02-03T19:56:35.797Z,6.20
2023-02-03T19:59:04.342Z,6.20
2023-02-03T20:01:32.265Z,6.20
2023-02-03T20:04:00.080Z,6.30
2023-02-03T20:06:28.907Z,6.30
2023-02-03T20:08:56.655Z,6.20
2023-02-03T20:11:24.083Z,6.20
2023-02-03T20:13:51.919Z,6.30
2023-02-03T20:16:19.914Z,6.30
2023-02-03T20:18:47.983Z,6.30
2023-02-03T20:21:16.240Z,6.30
2023-02-03T20:23:44.446Z,6.30
2023-02-03T20:26:14.001Z,6.30
2023-02-03T20:28:41.529Z,6.30
2023-02-03T20:31:09.197Z,6.30
2023-02-03T20:33:37.155Z,6.30
2023-02-03T20:36:05.649Z,6.30
2023-02-03T20:38:33.907Z,6.30
2023-02-03T20:41:01.531Z,6.30
2023-02-03T20:43:29.806Z,6.30
2023-02-03T20:45:58.073Z,6.30
2023-02-03T20:48:26.058Z,6.30
2023-02-03T20:50:54.076Z,6.20
2023-02-03T20:53:24.626Z,6.20
2023-02-03T20:55:55.737Z,6.20
2023-02-03T20:58:25.563Z,6.10
2023-02-03T21:00:57.052Z,6.10
2023-02-03T21:03:48.007Z,6.10
2023-02-03T21:06:19.382Z,6.00
2023-02-03T21:08:48.187Z,6.10
2023-02-03T21:11:21.250Z,6.10
2023-02-03T21:13:50.134Z,6.00
2023-02-03T21:16:20.689Z,6.00
2023-02-03T21:18:52.188Z,6.00
2023-02-03T21:21:38.185Z,6.00
2023-02-03T21:24:30.067Z,5.90
2023-02-03T21:26:58.931Z,5.90
2023-02-03T21:29:31.411Z,5.90
2023-02-03T21:31:59.974Z,5.90
2023-02-03T21:34:30.974Z,5.90
2023-02-03T21:37:20.593Z,5.90
2023-02-03T21:39:49.133Z,5.90
2023-02-03T21:42:41.292Z,5.90
2023-02-03T21:45:14.817Z,5.90
2023-02-03T21:47:43.531Z,5.80
2023-02-03T21:50:36.411Z,5.90
2023-02-03T21:53:10.372Z,5.80
2023-02-03T21:55:39.928Z,5.90
2023-02-03T21:58:33.179Z,5.80
2023-02-03T22:01:06.071Z,5.80
2023-02-03T22:03:43.384Z,5.80
2023-02-03T22:06:11.242Z,5.80
2023-02-03T22:08:43.095Z,5.80
2023-02-03T22:11:12.449Z,5.80
2023-02-03T22:13:40.787Z,5.80
2023-02-03T22:16:09.792Z,5.80
2023-02-03T22:18:37.529Z,5.70
2023-02-03T22:21:05.215Z,5.70
2023-02-03T22:23:33.917Z,5.70
2023-02-03T22:26:01.728Z,5.70
2023-02-03T22:28:29.475Z,5.70
2023-02-03T22:30:57.269Z,5.70
2023-02-03T22:33:25.098Z,5.60
2023-02-03T22:35:52.862Z,5.60
2023-02-03T22:38:20.313Z,5.60
2023-02-03T22:40:47.679Z,5.60
2023-02-03T22:43:15.913Z,5.60
2023-02-03T22:45:44.569Z,5.50
2023-02-03T22:48:12.330Z,5.50
2023-02-03T22:50:40.277Z,5.50
2023-02-03T22:53:09.435Z,5.50
2023-02-03T22:55:37.915Z,5.50
2023-02-03T22:58:07.343Z,5.50
2023-02-03T23:00:35.269Z,5.50
2023-02-03T23:03:04.286Z,5.50
2023-02-03T23:05:31.967Z,5.50
2023-02-03T23:08:00.755Z,5.50
2023-02-03T23:10:32.513Z,5.50
2023-02-03T23:13:01.102Z,5.40
2023-02-03T23:15:29.438Z,5.50
2023-02-03T23:17:58.360Z,5.40
2023-02-03T23:20:26.249Z,5.40
2023-02-03T23:22:54.145Z,5.40
2023-02-03T23:25:22.280Z,5.40
2023-02-03T23:27:49.729Z,5.40
2023-02-03T23:30:17.948Z,5.40
2023-02-03T23:32:46.455Z,5.40
2023-02-03T23:35:33.142Z,5.40
2023-02-03T23:38:00.900Z,5.30
2023-02-03T23:40:28.987Z,5.30
2023-02-03T23:42:57.089Z,5.30
2023-02-03T23:45:25.541Z,5.30
2023-02-03T23:47:53.494Z,5.30
2023-02-03T23:50:21.693Z,5.30
2023-02-03T23:52:50.169Z,5.30
2023-02-03T23:55:21.053Z,5.30
2023-02-03T23:57:49.537Z,5.30
